WICT2: Wichita River At Wichita Falls, TX

                                SHEF ID:       WICT2     Wichita Rv at Wichita Falls, TX
STATION TYPE:
Regulating: Stage = 18.50, Flow = 5482

PRECIP STAGE RIV-FLOW WTR-TEMP CONDUCT BAT-LOAD
in ft cfs F umho/cm volt
Ccp-Rev Ccp-Rev Ccp-Rev Ccp-Rev Ccp-Rev Ccp-Rev
(America/Chicago)
04/15 00:00 ---- 2.66 91 74.73 606 12.06
04/15 01:00 ---- 2.64 89 74.48 612 12.04
04/15 02:00 ---- 2.63 87 74.21 620 11.98
04/15 03:00 ---- 2.62 86 73.90 631 12.01
04/15 04:00 ---- 2.60 84 73.60 640 12.00
04/15 05:00 ---- 2.59 83 73.33 649 11.98
04/15 06:00 ---- 2.57 80 73.11 659 11.97
04/15 07:00 ---- 2.57 80 72.93 667 11.95
04/15 08:00 ---- 2.56 79 72.75 675 11.95
04/15 09:00 ---- 2.55 78 72.63 689 12.02
04/15 10:00 ---- 2.52 74 72.64 700 12.14
04/15 11:00 ---- 2.52 74 72.90 706 12.52
04/15 12:00 ---- 2.50 72 73.47 718 12.79
04/15 13:00 ---- 2.49 71 74.16 730 12.63
04/15 14:00 ---- 2.47 69 75.07 738 12.47
04/15 15:00 ---- 2.45 67 75.72 746 12.38
04/15 16:00 ---- 2.47 69 75.83 752 12.23
04/15 17:00 ---- 2.46 68 75.76 753 12.20
04/15 18:00 ---- 2.47 69 75.47 755 12.14
04/15 19:00 ---- 2.46 68 75.45 760 12.23
04/15 20:00 ---- 2.46 68 75.29 761 12.12
04/15 21:00 ---- 2.44 66 74.91 763 12.10
04/15 22:00 ---- 2.43 65 74.62 766 12.10
04/15 23:00 ---- 2.42 64 74.23 770 12.07
Data processed at Thu 16Apr2026 04:58 GMT

NOTICE: If you are parsing this page

Please convert to using our Data API. Starting early 2026 we will be migrating to: https://water.usace.army.mil with modern pages rendered in JavaScript. When this migration completes you will no longer be able to scrape this page! CWMSDataAPI (CDA)

Timeseries IDs (TSIDs)

TSIDs used from left to right in the data table
WFAL.Precip-Inc.Total.1Hour.1Hour.Ccp-Rev
WFAL.Stage.Inst.1Hour.0.Ccp-Rev
WFAL.Flow.Inst.1Hour.0.Ccp-Rev
WFAL.Temp-Water.Inst.1Hour.0.Ccp-Rev
WFAL.Cond-Water.Inst.1Hour.0.Ccp-Rev
WFAL.Volt-Battery Load.Inst.1Hour.0.Ccp-Rev

                            

All information presented herein is the property of the government of the United States of America and may be revised or deleted at any time without prior notice. Dissemination of this information without the expressed written consent of the Public Affairs Office, Tulsa District U.S. Army Corps of Engineers is strictly prohibited. These data are gathered electronically and, as presented, have NOT undergone any form of quality control. These data are NOT guaranteed to be valid or correct.